createdAt,value
2022-12-08T00:01:22.432Z,99770.25
2022-12-08T00:03:49.666Z,99772.81
2022-12-08T00:06:59.777Z,99764.75
2022-12-08T00:09:37.997Z,99765.19
2022-12-08T00:12:15.143Z,99765.06
2022-12-08T00:14:44.574Z,99758.94
2022-12-08T00:17:14.269Z,99758.72
2022-12-08T00:19:41.887Z,99757.81
2022-12-08T00:22:10.103Z,99758.94
2022-12-08T00:24:39.567Z,99757.06
2022-12-08T00:27:10.899Z,99754.38
2022-12-08T00:29:38.189Z,99741.72
2022-12-08T00:32:05.653Z,99739.22
2022-12-08T00:34:32.843Z,99740.38
2022-12-08T00:36:59.568Z,99740.44
2022-12-08T00:39:26.705Z,99737.03
2022-12-08T00:42:11.889Z,99732.09
2022-12-08T00:44:39.592Z,99730.78
2022-12-08T00:47:06.151Z,99724.88
2022-12-08T00:49:33.214Z,99711.41
2022-12-08T00:52:00.086Z,99717.72
2022-12-08T00:54:26.678Z,99713.38
2022-12-08T00:56:53.368Z,99712.88
2022-12-08T00:59:20.309Z,99715.28
2022-12-08T01:01:47.555Z,99706.94
2022-12-08T01:04:17.676Z,99708.41
2022-12-08T01:06:44.938Z,99714.63
2022-12-08T01:09:13.259Z,99712.69
2022-12-08T01:11:39.772Z,99701.97
2022-12-08T01:14:06.825Z,99703.22
2022-12-08T01:16:36.272Z,99706.44
2022-12-08T01:19:03.963Z,99706.84
2022-12-08T01:21:31.350Z,99706.97
2022-12-08T01:24:00.260Z,99712.06
2022-12-08T01:26:27.232Z,99713.50
2022-12-08T01:28:53.970Z,99712.50
2022-12-08T01:31:21.719Z,99719.00
2022-12-08T01:33:49.154Z,99716.31
2022-12-08T01:36:22.555Z,99701.19
2022-12-08T01:38:50.045Z,99703.28
2022-12-08T01:41:19.010Z,99700.44
2022-12-08T01:44:10.669Z,99698.56
2022-12-08T01:46:43.229Z,99692.47
2022-12-08T01:49:32.981Z,99694.47
2022-12-08T01:52:13.748Z,99705.75
2022-12-08T01:54:47.602Z,99703.41
2022-12-08T01:57:18.599Z,99702.00
2022-12-08T01:59:51.401Z,99700.50
2022-12-08T02:02:18.065Z,99691.13
2022-12-08T02:04:44.737Z,99694.16
2022-12-08T02:07:14.510Z,99689.13
2022-12-08T02:09:42.320Z,99687.31
2022-12-08T02:12:10.056Z,99681.38
2022-12-08T02:14:36.798Z,99686.97
2022-12-08T02:17:11.988Z,99680.97
2022-12-08T02:20:13.164Z,99678.81
2022-12-08T02:22:51.912Z,99679.69
2022-12-08T02:25:47.240Z,99671.34
2022-12-08T02:28:42.272Z,99672.22
2022-12-08T02:31:30.743Z,99668.56
2022-12-08T02:34:18.073Z,99660.91
2022-12-08T02:37:02.465Z,99664.97
2022-12-08T02:39:38.686Z,99661.06
2022-12-08T02:42:16.066Z,99662.44
2022-12-08T02:45:06.956Z,99663.09
2022-12-08T02:47:34.519Z,99667.38
2022-12-08T02:50:01.189Z,99658.97
2022-12-08T02:52:27.784Z,99657.22
2022-12-08T02:54:58.959Z,99658.91
2022-12-08T02:57:34.463Z,99650.75
2022-12-08T03:00:10.408Z,99651.13
2022-12-08T03:02:52.622Z,99648.19
2022-12-08T03:05:31.733Z,99643.84
2022-12-08T03:08:37.099Z,99647.38
2022-12-08T03:11:20.227Z,99645.31
2022-12-08T03:13:52.513Z,99635.69
2022-12-08T03:16:24.410Z,99629.97
2022-12-08T03:19:00.656Z,99626.81
2022-12-08T03:21:27.298Z,99618.31
2022-12-08T03:23:56.905Z,99619.84
2022-12-08T03:26:37.041Z,99610.53
2022-12-08T03:29:04.427Z,99609.78
2022-12-08T03:31:35.627Z,99608.28
2022-12-08T03:34:03.169Z,99608.63
2022-12-08T03:36:30.094Z,99602.03
2022-12-08T03:38:56.642Z,99608.31
2022-12-08T03:41:23.565Z,99601.41
2022-12-08T03:43:55.823Z,99604.69
2022-12-08T03:48:50.548Z,99598.44
2022-12-08T03:51:17.603Z,99585.53
2022-12-08T03:53:44.149Z,99583.44
2022-12-08T03:56:28.732Z,99585.16
2022-12-08T03:58:55.415Z,99578.59
2022-12-08T04:01:22.973Z,99576.63
2022-12-08T04:03:50.347Z,99582.44
2022-12-08T04:06:17.963Z,99570.81
2022-12-08T04:08:44.590Z,99582.44
2022-12-08T04:11:11.391Z,99577.72
2022-12-08T04:13:40.052Z,99569.66
2022-12-08T04:16:07.876Z,99575.38
2022-12-08T04:18:35.254Z,99569.25
2022-12-08T04:21:02.143Z,99562.69
2022-12-08T04:23:28.827Z,99553.59
2022-12-08T04:25:55.461Z,99552.25
2022-12-08T04:28:22.012Z,99549.34
2022-12-08T04:30:49.444Z,99547.97
2022-12-08T04:33:16.670Z,99546.63
2022-12-08T04:35:43.493Z,99547.25
2022-12-08T04:38:10.094Z,99552.31
2022-12-08T04:40:36.949Z,99547.78
2022-12-08T04:43:04.303Z,99554.84
2022-12-08T04:45:31.760Z,99553.97
2022-12-08T04:48:00.153Z,99554.41
2022-12-08T04:50:28.085Z,99546.66
2022-12-08T04:52:54.668Z,99544.16
2022-12-08T04:55:21.713Z,99548.13
2022-12-08T04:57:48.905Z,99544.25
2022-12-08T05:00:15.903Z,99546.00
2022-12-08T05:02:42.518Z,99539.75
2022-12-08T05:05:10.133Z,99538.59
2022-12-08T05:07:36.830Z,99540.97
2022-12-08T05:10:04.688Z,99532.03
2022-12-08T05:12:31.368Z,99531.03
2022-12-08T05:14:57.880Z,99531.84
2022-12-08T05:17:24.731Z,99533.72
2022-12-08T05:19:51.278Z,99532.47
2022-12-08T05:22:17.813Z,99540.81
2022-12-08T05:24:47.621Z,99539.84
2022-12-08T05:27:14.574Z,99532.94
2022-12-08T05:29:41.385Z,99533.75
2022-12-08T05:32:07.972Z,99527.81
2022-12-08T05:34:34.651Z,99525.22
2022-12-08T05:37:01.264Z,99524.56
2022-12-08T05:39:28.889Z,99526.91
2022-12-08T05:41:55.401Z,99523.75
2022-12-08T05:44:21.932Z,99520.88
2022-12-08T05:46:48.504Z,99521.47
2022-12-08T05:49:15.043Z,99517.63
2022-12-08T05:51:41.977Z,99515.69
2022-12-08T05:54:08.497Z,99512.72
2022-12-08T05:56:35.073Z,99520.03
2022-12-08T05:59:01.676Z,99515.56
2022-12-08T06:01:30.676Z,99515.41
2022-12-08T06:03:59.306Z,99509.31
2022-12-08T06:06:26.164Z,99508.53
2022-12-08T06:08:53.281Z,99505.19
2022-12-08T06:11:22.177Z,99502.25
2022-12-08T06:13:50.094Z,99512.44
2022-12-08T06:16:17.740Z,99516.84
2022-12-08T06:18:45.404Z,99515.13
2022-12-08T06:21:13.614Z,99520.31
2022-12-08T06:23:40.697Z,99521.78
2022-12-08T06:26:13.968Z,99524.78
2022-12-08T06:28:42.417Z,99521.25
2022-12-08T06:31:25.343Z,99513.25
2022-12-08T06:33:53.194Z,99514.00
2022-12-08T06:36:22.374Z,99516.34
2022-12-08T06:38:49.220Z,99517.84
2022-12-08T06:41:16.429Z,99523.22
2022-12-08T06:43:43.609Z,99515.50
2022-12-08T06:46:13.998Z,99520.06
2022-12-08T06:48:40.953Z,99517.84
2022-12-08T06:51:13.348Z,99529.19
2022-12-08T06:53:40.413Z,99529.44
2022-12-08T06:56:08.220Z,99529.19
2022-12-08T06:58:35.438Z,99524.44
2022-12-08T07:01:11.230Z,99530.47
2022-12-08T07:03:39.093Z,99530.34
2022-12-08T07:06:06.720Z,99541.38
2022-12-08T07:08:34.559Z,99540.97
2022-12-08T07:11:06.823Z,99545.59
2022-12-08T07:13:33.664Z,99541.47
2022-12-08T07:16:00.265Z,99545.91
2022-12-08T07:18:26.880Z,99544.38
2022-12-08T07:20:53.390Z,99549.44
2022-12-08T07:23:19.938Z,99548.44
2022-12-08T07:25:46.485Z,99543.13
2022-12-08T07:28:13.907Z,99551.97
2022-12-08T07:30:40.544Z,99547.47
2022-12-08T07:33:07.169Z,99550.13
2022-12-08T07:35:35.146Z,99538.31
2022-12-08T07:38:02.940Z,99538.59
2022-12-08T07:40:29.571Z,99544.69
2022-12-08T07:42:57.172Z,99536.13
2022-12-08T07:45:28.317Z,99534.50
2022-12-08T07:47:57.772Z,99530.53
2022-12-08T07:50:24.609Z,99534.31
2022-12-08T07:52:51.158Z,99539.06
2022-12-08T07:55:17.781Z,99544.03
2022-12-08T07:57:44.307Z,99541.97
2022-12-08T08:00:11.891Z,99532.72
2022-12-08T08:02:39.699Z,99529.31
2022-12-08T08:05:06.959Z,99533.06
2022-12-08T08:07:34.257Z,99524.44
2022-12-08T08:10:00.906Z,99533.59
2022-12-08T08:12:32.136Z,99542.31
2022-12-08T08:15:01.310Z,99531.34
2022-12-08T08:17:29.113Z,99539.06
2022-12-08T08:19:56.539Z,99554.94
2022-12-08T08:22:24.649Z,99547.44
2022-12-08T08:24:51.157Z,99549.50
2022-12-08T08:27:17.729Z,99554.75
2022-12-08T08:29:44.266Z,99557.56
2022-12-08T08:32:11.139Z,99560.56
2022-12-08T08:34:38.189Z,99568.84
2022-12-08T08:37:05.156Z,99564.66
2022-12-08T08:39:31.939Z,99571.84
2022-12-08T08:41:58.950Z,99569.97
2022-12-08T08:44:25.503Z,99575.22
2022-12-08T08:46:52.366Z,99585.38
2022-12-08T08:49:20.006Z,99576.63
2022-12-08T08:51:46.917Z,99577.91
2022-12-08T08:54:13.901Z,99573.53
2022-12-08T08:56:41.357Z,99567.06
2022-12-08T08:59:09.181Z,99584.31
2022-12-08T09:01:36.602Z,99577.84
2022-12-08T09:04:04.074Z,99574.97
2022-12-08T09:06:30.831Z,99573.97
2022-12-08T09:08:57.717Z,99567.88
2022-12-08T09:11:24.329Z,99571.78
2022-12-08T09:13:52.006Z,99572.03
2022-12-08T09:16:19.094Z,99579.00
2022-12-08T09:18:46.579Z,99576.88
2022-12-08T09:21:22.228Z,99574.81
2022-12-08T09:23:55.486Z,99587.22
2022-12-08T09:26:23.158Z,99581.16
2022-12-08T09:28:51.478Z,99588.78
2022-12-08T09:31:20.460Z,99589.16
2022-12-08T09:33:47.805Z,99584.38
2022-12-08T09:36:15.384Z,99588.81
2022-12-08T09:38:41.933Z,99590.34
2022-12-08T09:41:35.727Z,99587.59
2022-12-08T09:44:38.952Z,99583.84
2022-12-08T09:47:17.435Z,99594.88
2022-12-08T09:50:07.558Z,99594.00
2022-12-08T09:52:46.424Z,99584.84
2022-12-08T09:55:20.704Z,99594.13
2022-12-08T09:57:56.502Z,99586.31
2022-12-08T10:00:23.464Z,99575.88
2022-12-08T10:02:50.053Z,99585.72
2022-12-08T10:05:16.733Z,99572.72
2022-12-08T10:08:03.605Z,99582.38
2022-12-08T10:10:46.710Z,99583.03
2022-12-08T10:13:29.275Z,99578.69
2022-12-08T10:16:29.853Z,99575.34
2022-12-08T10:19:24.349Z,99572.72
2022-12-08T10:21:52.978Z,99574.56
2022-12-08T10:24:26.363Z,99572.34
2022-12-08T10:26:53.842Z,99573.78
2022-12-08T10:29:20.406Z,99584.03
2022-12-08T10:31:47.169Z,99580.06
2022-12-08T10:34:20.024Z,99569.09
2022-12-08T10:36:56.322Z,99579.75
2022-12-08T10:39:37.279Z,99584.44
2022-12-08T10:42:21.959Z,99582.13
2022-12-08T10:44:55.304Z,99579.25
2022-12-08T10:47:24.365Z,99579.41
2022-12-08T10:50:20.234Z,99580.28
2022-12-08T10:52:56.597Z,99587.75
2022-12-08T10:55:23.580Z,99583.53
2022-12-08T10:57:50.518Z,99577.78
2022-12-08T11:00:20.627Z,99583.78
2022-12-08T11:03:05.744Z,99583.31
2022-12-08T11:05:34.829Z,99586.38
2022-12-08T11:08:02.750Z,99587.44
2022-12-08T11:10:44.009Z,99579.69
2022-12-08T11:13:40.557Z,99577.59
2022-12-08T11:16:08.631Z,99577.59
2022-12-08T11:18:46.904Z,99585.44
2022-12-08T11:21:19.278Z,99582.78
2022-12-08T11:23:50.450Z,99566.00
2022-12-08T11:26:30.018Z,99580.56
2022-12-08T11:28:57.134Z,99571.84
2022-12-08T11:31:42.297Z,99570.38
2022-12-08T11:34:19.998Z,99575.78
2022-12-08T11:36:47.295Z,99571.53
2022-12-08T11:39:14.794Z,99567.56
2022-12-08T11:41:45.796Z,99569.81
2022-12-08T11:44:24.376Z,99577.06
2022-12-08T11:46:59.706Z,99575.75
2022-12-08T11:49:37.363Z,99578.41
2022-12-08T11:52:19.162Z,99577.25
2022-12-08T11:54:55.860Z,99577.59
2022-12-08T11:57:26.830Z,99581.75
2022-12-08T11:59:56.243Z,99582.06
2022-12-08T12:02:34.932Z,99581.34
2022-12-08T12:05:17.392Z,99584.34
2022-12-08T12:08:28.544Z,99590.00
2022-12-08T12:11:34.029Z,99588.34
2022-12-08T12:14:39.753Z,99582.25
2022-12-08T12:17:21.160Z,99596.03
2022-12-08T12:19:48.693Z,99580.22
2022-12-08T12:22:19.782Z,99586.53
2022-12-08T12:24:49.370Z,99576.66
2022-12-08T12:27:15.927Z,99591.38
2022-12-08T12:29:52.269Z,99597.72
2022-12-08T12:32:22.521Z,99586.38
2022-12-08T12:35:00.865Z,99593.38
2022-12-08T12:37:39.837Z,99590.72
2022-12-08T12:40:17.289Z,99591.38
2022-12-08T12:42:51.649Z,99581.03
2022-12-08T12:45:18.285Z,99580.69
2022-12-08T12:48:12.726Z,99586.28
2022-12-08T12:50:45.743Z,99581.34
2022-12-08T12:53:18.844Z,99582.38
2022-12-08T12:55:45.305Z,99580.28
2022-12-08T12:58:36.643Z,99581.66
2022-12-08T13:01:12.613Z,99584.53
2022-12-08T13:03:45.804Z,99577.53
2022-12-08T13:06:23.918Z,99583.19
2022-12-08T13:08:53.147Z,99573.09
2022-12-08T13:11:21.451Z,99582.38
2022-12-08T13:14:01.294Z,99578.84
2022-12-08T13:16:32.319Z,99571.19
2022-12-08T13:19:03.274Z,99571.31
2022-12-08T13:21:37.952Z,99581.16
2022-12-08T13:24:10.623Z,99578.88
2022-12-08T13:26:48.178Z,99573.16
2022-12-08T13:29:16.478Z,99574.50
2022-12-08T13:31:55.513Z,99563.00
2022-12-08T13:34:26.068Z,99568.75
2022-12-08T13:37:10.607Z,99565.63
2022-12-08T13:39:39.908Z,99566.28
2022-12-08T13:42:06.773Z,99571.53
2022-12-08T13:45:22.278Z,99572.81
2022-12-08T13:48:13.710Z,99570.78
2022-12-08T13:54:42.615Z,99576.22
2022-12-08T13:59:24.274Z,99582.34
2022-12-08T14:01:51.293Z,99577.91
2022-12-08T14:05:09.205Z,99576.44
2022-12-08T14:07:11.795Z,99581.81
2022-12-08T14:09:40.113Z,99588.41
2022-12-08T14:12:14.460Z,99584.19
2022-12-08T14:17:32.614Z,99596.13
2022-12-08T14:20:22.314Z,99594.22
2022-12-08T14:22:50.267Z,99604.66
2022-12-08T14:25:17.874Z,99601.41
2022-12-08T14:27:45.814Z,99600.22
2022-12-08T14:30:13.453Z,99607.28
2022-12-08T14:32:52.533Z,99599.69
2022-12-08T14:35:28.480Z,99600.50
2022-12-08T14:38:20.672Z,99597.78
2022-12-08T14:40:49.823Z,99598.09
2022-12-08T14:43:18.327Z,99599.63
2022-12-08T14:45:44.905Z,99605.47
2022-12-08T14:48:33.954Z,99604.31
2022-12-08T14:51:03.271Z,99605.56
2022-12-08T14:53:55.763Z,99605.16
2022-12-08T14:56:26.463Z,99606.22
2022-12-08T14:59:17.664Z,99611.56
2022-12-08T15:01:45.747Z,99611.84
2022-12-08T15:04:12.255Z,99605.91
2022-12-08T15:06:56.873Z,99612.63
2022-12-08T15:09:36.599Z,99617.94
2022-12-08T15:12:27.553Z,99620.44
2022-12-08T15:14:58.428Z,99628.03
2022-12-08T15:17:47.539Z,99625.88
2022-12-08T15:20:40.943Z,99625.84
2022-12-08T15:23:18.782Z,99618.66
2022-12-08T15:25:45.833Z,99619.66
2022-12-08T15:28:14.353Z,99626.81
2022-12-08T15:30:40.923Z,99621.38
2022-12-08T15:33:07.708Z,99625.22
2022-12-08T15:35:40.374Z,99636.69
2022-12-08T15:38:14.930Z,99631.56
2022-12-08T15:40:41.462Z,99632.66
2022-12-08T15:43:10.909Z,99640.72
2022-12-08T15:45:38.017Z,99633.13
2022-12-08T15:48:04.971Z,99634.72
2022-12-08T15:50:31.569Z,99639.47
2022-12-08T15:52:58.161Z,99647.09
2022-12-08T15:55:27.131Z,99638.94
2022-12-08T16:00:52.482Z,99636.38
2022-12-08T16:09:41.722Z,99640.44
2022-12-08T16:13:19.990Z,99641.00
2022-12-08T16:15:50.162Z,99641.66
2022-12-08T16:18:26.641Z,99640.31
2022-12-08T16:23:44.667Z,99654.81
2022-12-08T16:27:01.233Z,99662.81
2022-12-08T16:29:06.954Z,99663.03
2022-12-08T16:31:34.022Z,99658.41
2022-12-08T16:34:00.895Z,99660.28
2022-12-08T16:36:27.422Z,99649.06
2022-12-08T16:38:53.950Z,99661.03
2022-12-08T16:41:38.980Z,99658.56
2022-12-08T16:44:06.143Z,99659.13
2022-12-08T16:46:33.544Z,99655.78
2022-12-08T16:49:00.571Z,99660.34
2022-12-08T16:51:27.722Z,99673.38
2022-12-08T16:53:58.536Z,99670.34
2022-12-08T16:56:32.162Z,99666.69
2022-12-08T16:58:59.884Z,99665.81
2022-12-08T17:01:26.471Z,99672.38
2022-12-08T17:04:22.364Z,99680.81
2022-12-08T17:06:41.501Z,99677.41
2022-12-08T17:09:08.070Z,99683.25
2022-12-08T17:11:40.773Z,99680.78
2022-12-08T17:14:09.803Z,99683.69
2022-12-08T17:16:36.383Z,99686.16
2022-12-08T17:19:03.030Z,99685.38
2022-12-08T17:21:29.804Z,99683.16
2022-12-08T17:23:56.381Z,99682.59
2022-12-08T17:26:22.921Z,99681.31
2022-12-08T17:29:00.496Z,99672.00
2022-12-08T17:31:30.382Z,99678.66
2022-12-08T17:34:02.160Z,99679.25
2022-12-08T17:36:28.955Z,99683.06
2022-12-08T17:38:56.993Z,99684.53
2022-12-08T17:41:23.563Z,99682.75
2022-12-08T17:43:50.291Z,99689.97
2022-12-08T17:46:18.329Z,99688.06
2022-12-08T17:48:44.986Z,99689.25
2022-12-08T17:51:11.966Z,99686.72
2022-12-08T17:53:40.595Z,99696.59
2022-12-08T17:56:15.224Z,99696.53
2022-12-08T17:58:41.905Z,99701.94
2022-12-08T18:01:10.285Z,99691.31
2022-12-08T18:03:37.287Z,99695.25
2022-12-08T18:06:06.041Z,99697.34
2022-12-08T18:08:32.779Z,99702.34
2022-12-08T18:10:59.369Z,99703.91
2022-12-08T18:13:26.728Z,99705.94
2022-12-08T18:15:53.309Z,99704.22
2022-12-08T18:18:20.136Z,99706.44
2022-12-08T18:20:46.673Z,99705.59
2022-12-08T18:23:14.051Z,99706.91
2022-12-08T18:25:40.665Z,99706.97
2022-12-08T18:28:07.257Z,99698.13
2022-12-08T18:30:33.846Z,99704.22
2022-12-08T18:33:03.884Z,99710.34
2022-12-08T18:35:30.700Z,99708.84
2022-12-08T18:37:58.358Z,99710.44
2022-12-08T18:40:24.960Z,99712.66
2022-12-08T18:42:51.542Z,99715.25
2022-12-08T18:45:22.517Z,99712.25
2022-12-08T18:47:50.798Z,99715.69
2022-12-08T18:50:18.206Z,99712.63
2022-12-08T18:52:46.048Z,99711.63
2022-12-08T18:55:13.580Z,99711.00
2022-12-08T18:57:42.967Z,99709.16
2022-12-08T19:00:18.455Z,99711.91
2022-12-08T19:02:45.967Z,99710.34
2022-12-08T19:05:13.676Z,99709.44
2022-12-08T19:07:42.520Z,99705.34
2022-12-08T19:10:10.339Z,99713.41
2022-12-08T19:12:37.330Z,99710.97
2022-12-08T19:15:05.116Z,99710.84
2022-12-08T19:17:32.738Z,99708.50
2022-12-08T19:19:59.457Z,99702.66
2022-12-08T19:22:26.055Z,99703.25
2022-12-08T19:24:52.686Z,99703.47
2022-12-08T19:27:19.491Z,99708.94
2022-12-08T19:29:46.027Z,99711.09
2022-12-08T19:32:13.371Z,99710.47
2022-12-08T19:34:40.107Z,99714.44
2022-12-08T19:37:08.854Z,99711.94
2022-12-08T19:39:53.792Z,99712.09
2022-12-08T19:42:39.067Z,99708.69
2022-12-08T19:45:12.434Z,99715.63
2022-12-08T19:47:40.377Z,99719.88
2022-12-08T19:50:27.747Z,99717.81
2022-12-08T19:52:55.822Z,99716.84
2022-12-08T19:55:24.594Z,99706.28
2022-12-08T19:57:52.268Z,99716.78
2022-12-08T20:00:19.976Z,99722.56
2022-12-08T20:02:47.342Z,99721.47
2022-12-08T20:05:15.097Z,99716.84
2022-12-08T20:07:41.963Z,99726.50
2022-12-08T20:10:14.893Z,99723.69
2022-12-08T20:12:41.633Z,99727.09
2022-12-08T20:15:10.100Z,99725.00
2022-12-08T20:17:38.158Z,99727.81
2022-12-08T20:20:07.628Z,99740.47
2022-12-08T20:22:35.723Z,99737.97
2022-12-08T20:25:03.401Z,99732.69
2022-12-08T20:27:30.003Z,99726.66
2022-12-08T20:29:57.004Z,99730.88
2022-12-08T20:32:23.726Z,99732.72
2022-12-08T20:34:50.720Z,99733.41
2022-12-08T20:37:17.291Z,99736.19
2022-12-08T20:39:43.985Z,99737.47
2022-12-08T20:42:13.852Z,99734.25
2022-12-08T20:44:44.667Z,99732.81
2022-12-08T20:47:12.883Z,99740.69
2022-12-08T20:49:39.665Z,99743.66
2022-12-08T20:52:06.444Z,99744.28
2022-12-08T20:54:33.819Z,99741.53
2022-12-08T20:57:00.791Z,99745.56
2022-12-08T20:59:27.483Z,99738.03
2022-12-08T21:01:54.272Z,99743.97
2022-12-08T21:04:22.783Z,99741.72
2022-12-08T21:06:49.995Z,99748.41
2022-12-08T21:09:16.737Z,99737.19
2022-12-08T21:11:43.443Z,99736.50
2022-12-08T21:14:10.247Z,99735.66
2022-12-08T21:16:37.133Z,99730.47
2022-12-08T21:19:04.371Z,99738.47
2022-12-08T21:21:31.173Z,99737.47
2022-12-08T21:23:58.249Z,99737.50
2022-12-08T21:26:25.992Z,99741.53
2022-12-08T21:28:56.472Z,99740.16
2022-12-08T21:31:25.122Z,99745.78
2022-12-08T21:33:54.854Z,99744.34
2022-12-08T21:36:22.233Z,99743.09
2022-12-08T21:38:50.418Z,99749.28
2022-12-08T21:41:38.794Z,99747.56
2022-12-08T21:44:06.929Z,99745.63
2022-12-08T21:46:34.383Z,99743.13
2022-12-08T21:49:02.208Z,99742.53
2022-12-08T21:51:28.925Z,99748.84
2022-12-08T21:53:55.725Z,99749.28
2022-12-08T21:56:22.722Z,99740.72
2022-12-08T21:58:49.823Z,99749.28
2022-12-08T22:01:16.605Z,99747.72
2022-12-08T22:03:43.505Z,99745.19
2022-12-08T22:06:13.498Z,99749.78
2022-12-08T22:08:41.690Z,99746.44
2022-12-08T22:11:10.354Z,99752.91
2022-12-08T22:13:39.078Z,99753.84
2022-12-08T22:16:08.735Z,99754.00
2022-12-08T22:18:36.920Z,99757.13
2022-12-08T22:21:17.990Z,99756.41
2022-12-08T22:23:45.239Z,99759.91
2022-12-08T22:26:13.110Z,99759.19
2022-12-08T22:28:41.667Z,99763.84
2022-12-08T22:31:13.142Z,99761.03
2022-12-08T22:33:40.928Z,99755.00
2022-12-08T22:36:13.058Z,99764.22
2022-12-08T22:38:40.778Z,99754.41
2022-12-08T22:41:08.378Z,99753.75
2022-12-08T22:43:36.719Z,99749.25
2022-12-08T22:46:12.845Z,99755.13
2022-12-08T22:48:39.692Z,99762.13
2022-12-08T22:51:06.712Z,99756.94
2022-12-08T22:53:34.196Z,99753.75
2022-12-08T22:56:04.905Z,99754.16
2022-12-08T22:58:31.567Z,99750.22
2022-12-08T23:00:58.174Z,99743.66
2022-12-08T23:03:24.832Z,99753.47
2022-12-08T23:05:51.729Z,99757.94
2022-12-08T23:08:18.545Z,99761.03
2022-12-08T23:10:46.716Z,99763.09
2022-12-08T23:13:14.592Z,99767.88
2022-12-08T23:15:41.690Z,99757.53
2022-12-08T23:18:12.593Z,99756.00
2022-12-08T23:20:39.371Z,99752.50
2022-12-08T23:23:05.912Z,99756.25
2022-12-08T23:25:32.583Z,99756.00
2022-12-08T23:27:59.268Z,99765.78
2022-12-08T23:30:26.200Z,99758.94
2022-12-08T23:32:56.372Z,99760.47
2022-12-08T23:35:23.200Z,99753.19
2022-12-08T23:37:49.835Z,99758.25
2022-12-08T23:40:16.639Z,99760.19
2022-12-08T23:42:43.353Z,99753.75
2022-12-08T23:45:10.566Z,99757.13
2022-12-08T23:47:37.213Z,99759.34
2022-12-08T23:50:04.803Z,99756.56
2022-12-08T23:52:31.743Z,99756.97
2022-12-08T23:54:58.588Z,99757.34
2022-12-08T23:57:25.565Z,99754.84
2022-12-08T23:59:52.067Z,99753.19
